Time;durP1;ratioP1;P1;durP2;ratioP2;P2;SDS_P1;SDS_P2;PMS_P1;PMS_P2;Temp;Humidity;BMP_temperature;BMP_pressure;BME280_temperature;BME280_humidity;BME280_pressure;Samples;Min_cycle;Max_cycle;Signal;HPM_P1;HPM_P2
2023/05/05 00:00:19;;;;;;;7.60;6.93;;;;;;;11.52;64.26;95268.78;5035844;28;20245;-71
2023/05/05 00:02:45;;;;;;;7.57;6.97;;;;;;;11.48;64.34;95268.25;5022834;28;20244;-71
2023/05/05 00:05:11;;;;;;;8.07;7.28;;;;;;;11.65;63.29;95256.91;5022816;28;20226;-70
2023/05/05 00:07:36;;;;;;;8.68;7.28;;;;;;;11.62;63.69;95264.25;5030858;28;20222;-70
2023/05/05 00:10:02;;;;;;;7.47;6.77;;;;;;;11.66;63.48;95268.25;5032636;28;20197;-71
2023/05/05 00:12:27;;;;;;;8.57;7.78;;;;;;;11.70;63.26;95266.94;5025057;28;20227;-71
2023/05/05 00:14:53;;;;;;;7.80;7.10;;;;;;;11.72;63.37;95270.28;5031123;28;20229;-71
2023/05/05 00:17:18;;;;;;;8.20;7.40;;;;;;;11.62;64.01;95258.97;5027157;28;20294;-70
2023/05/05 00:19:43;;;;;;;8.03;7.33;;;;;;;11.54;64.29;95261.56;5040562;28;20217;-71
2023/05/05 00:22:09;;;;;;;8.40;7.70;;;;;;;11.53;64.20;95259.91;5033082;28;20218;-70
2023/05/05 00:24:35;;;;;;;8.50;7.70;;;;;;;11.55;63.96;95261.41;5026676;28;20222;-69
2023/05/05 00:27:01;;;;;;;8.27;7.57;;;;;;;11.48;64.52;95260.34;5031621;28;20217;-69
2023/05/05 00:29:26;;;;;;;9.37;8.57;;;;;;;11.52;64.38;95268.78;5034004;28;20221;-70
2023/05/05 00:31:52;;;;;;;8.77;7.90;;;;;;;11.42;64.65;95266.22;5043997;28;20234;-69
2023/05/05 00:34:17;;;;;;;9.25;7.97;;;;;;;11.41;64.88;95261.94;5036356;28;20186;-69
2023/05/05 00:36:43;;;;;;;8.90;8.10;;;;;;;11.41;65.13;95267.19;5025823;28;20208;-69
2023/05/05 00:39:08;;;;;;;8.80;8.00;;;;;;;11.40;65.00;95260.28;5026919;28;20226;-69
2023/05/05 00:41:34;;;;;;;8.73;7.93;;;;;;;11.27;65.19;95264.09;5041510;28;20226;-69
2023/05/05 00:43:59;;;;;;;8.20;7.30;;;;;;;11.10;65.94;95264.13;5031613;28;20213;-69
2023/05/05 00:46:28;;;;;;;8.50;7.80;;;;;;;11.02;66.66;95257.78;5043907;28;20196;-69
2023/05/05 00:48:53;;;;;;;7.90;7.22;;;;;;;11.15;65.92;95265.31;5034690;28;20208;-70
2023/05/05 00:51:20;;;;;;;9.00;8.23;;;;;;;11.17;65.58;95254.63;5031029;28;20681;-72
2023/05/05 00:53:46;;;;;;;8.05;7.35;;;;;;;11.18;65.56;95261.56;5024278;28;20221;-70
2023/05/05 00:56:13;;;;;;;8.63;7.72;;;;;;;11.06;66.20;95260.09;5035359;28;20225;-70
2023/05/05 00:58:42;;;;;;;8.77;7.97;;;;;;;11.02;66.14;95255.16;5037921;28;20285;-70
2023/05/05 01:01:10;;;;;;;8.90;8.00;;;;;;;11.03;65.99;95263.88;5033648;28;20193;-70
2023/05/05 01:03:42;;;;;;;8.60;7.80;;;;;;;10.98;65.89;95274.81;5034068;28;20245;-69
2023/05/05 01:06:09;;;;;;;9.50;7.82;;;;;;;11.03;65.77;95269.13;5029945;28;20232;-69
2023/05/05 01:08:50;;;;;;;8.77;7.73;;;;;;;10.94;66.20;95265.59;5035013;28;20244;-70
2023/05/05 01:11:33;;;;;;;8.93;8.13;;;;;;;10.93;66.13;95260.47;5032340;28;20244;-70
2023/05/05 01:14:14;;;;;;;9.70;8.20;;;;;;;10.99;65.82;95257.25;5035299;28;20230;-70
2023/05/05 01:17:08;;;;;;;8.80;7.95;;;;;;;10.94;65.97;95260.31;5027219;28;20612;-69
2023/05/05 01:19:33;;;;;;;8.50;7.80;;;;;;;10.94;66.09;95257.69;4985228;28;20235;-69
2023/05/05 01:22:02;;;;;;;8.93;8.13;;;;;;;10.96;65.96;95255.75;4985488;28;20296;-69
2023/05/05 01:24:39;;;;;;;13.75;7.70;;;;;;;10.95;66.29;95256.72;4989992;28;20278;-69
2023/05/05 01:27:26;;;;;;;8.40;7.60;;;;;;;10.99;65.98;95254.63;4970843;28;20231;-70
2023/05/05 01:29:51;;;;;;;8.87;8.07;;;;;;;10.91;66.16;95254.53;4973082;28;20231;-69
2023/05/05 01:32:25;;;;;;;8.43;7.73;;;;;;;10.92;66.12;95251.75;4970375;28;20230;-68
2023/05/05 01:35:01;;;;;;;8.67;7.87;;;;;;;10.93;66.02;95247.31;4983527;28;20231;-69
2023/05/05 01:37:31;;;;;;;9.43;7.53;;;;;;;10.91;65.85;95242.22;4984099;28;20277;-68
2023/05/05 01:40:02;;;;;;;7.93;7.10;;;;;;;10.72;66.18;95248.41;4973041;28;20239;-68
2023/05/05 01:42:29;;;;;;;8.15;7.35;;;;;;;10.64;66.61;95252.72;4974381;28;20228;-69
2023/05/05 01:44:56;;;;;;;8.33;7.60;;;;;;;10.65;66.52;95244.72;4972930;28;20250;-69
2023/05/05 01:47:23;;;;;;;8.83;7.70;;;;;;;10.71;66.22;95246.75;4990896;28;20224;-69
2023/05/05 01:49:49;;;;;;;8.80;8.00;;;;;;;10.70;66.08;95236.38;4987624;28;20534;-68
2023/05/05 01:52:16;;;;;;;9.60;8.13;;;;;;;10.56;66.39;95227.19;4988287;28;20180;-69
2023/05/05 01:54:44;;;;;;;8.90;8.00;;;;;;;10.57;66.55;95232.28;4972779;28;20310;-69
2023/05/05 01:57:11;;;;;;;8.40;7.60;;;;;;;10.70;66.28;95234.56;5026090;28;20229;-68
2023/05/05 01:59:38;;;;;;;8.30;7.60;;;;;;;10.69;66.28;95229.44;5032275;28;20283;-69
2023/05/05 02:02:06;;;;;;;8.10;7.33;;;;;;;10.74;66.25;95243.81;5032189;28;20323;-69
2023/05/05 02:04:34;;;;;;;9.13;8.20;;;;;;;10.76;66.15;95243.69;5032805;28;20233;-68
2023/05/05 02:07:01;;;;;;;7.97;7.20;;;;;;;10.71;66.27;95230.97;5023321;28;20193;-69
2023/05/05 02:09:28;;;;;;;7.73;7.13;;;;;;;10.63;66.80;95230.88;5025949;28;20217;-69
2023/05/05 02:11:56;;;;;;;8.17;7.47;;;;;;;10.73;66.32;95228.19;5033851;28;20287;-70
2023/05/05 02:14:25;;;;;;;8.57;7.47;;;;;;;10.83;65.92;95226.34;5031730;28;20225;-70
2023/05/05 02:16:53;;;;;;;8.37;7.67;;;;;;;10.81;66.00;95223.84;5029943;28;20222;-70
2023/05/05 02:19:22;;;;;;;8.30;7.50;;;;;;;10.88;65.81;95229.34;5047560;28;20185;-69
2023/05/05 02:21:47;;;;;;;7.97;7.17;;;;;;;10.94;65.71;95230.56;5052414;28;20183;-70
2023/05/05 02:24:13;;;;;;;7.90;7.20;;;;;;;10.90;65.72;95231.81;5042563;28;20237;-69
2023/05/05 02:26:41;;;;;;;7.53;6.83;;;;;;;10.94;65.81;95230.56;5038185;28;20283;-69
2023/05/05 02:29:30;;;;;;;7.50;6.80;;;;;;;11.01;65.47;95236.88;5036645;28;20237;-69
2023/05/05 02:32:04;;;;;;;7.60;6.90;;;;;;;10.97;65.55;95227.63;4985489;28;20220;-69
2023/05/05 02:34:35;;;;;;;7.50;6.90;;;;;;;10.91;65.55;95226.44;4987166;28;20223;-69
2023/05/05 02:37:04;;;;;;;10.63;7.23;;;;;;;10.93;65.74;95229.75;4971472;28;20200;-69
2023/05/05 02:39:39;;;;;;;7.60;6.93;;;;;;;11.06;65.33;95236.44;4985292;28;20235;-69
2023/05/05 02:42:08;;;;;;;7.03;6.47;;;;;;;10.98;65.63;95232.72;4973125;28;20299;-69
2023/05/05 02:44:34;;;;;;;7.10;6.43;;;;;;;10.80;65.90;95235.34;4984213;28;20223;-70
2023/05/05 02:47:03;;;;;;;6.90;6.40;;;;;;;10.93;65.67;95231.53;4985620;28;20223;-70
2023/05/05 02:49:28;;;;;;;6.73;6.03;;;;;;;10.86;65.59;95231.31;4981087;28;20199;-70
2023/05/05 02:51:54;;;;;;;8.30;6.03;;;;;;;10.83;65.58;95231.59;4971664;28;20258;-70
2023/05/05 02:54:19;;;;;;;6.63;6.03;;;;;;;10.88;65.70;95229.34;4966242;28;20224;-70
2023/05/05 02:56:50;;;;;;;7.10;6.37;;;;;;;10.90;65.42;95226.56;4972112;28;20265;-69
2023/05/05 02:59:29;;;;;;;6.73;6.23;;;;;;;10.88;65.52;95232.00;4952618;28;20288;-70
2023/05/05 03:02:15;;;;;;;5.90;5.23;;;;;;;10.99;64.99;95236.22;4983473;28;20282;-69
2023/05/05 03:04:50;;;;;;;6.03;5.53;;;;;;;10.82;65.38;95230.78;4978415;28;20286;-71
2023/05/05 03:07:25;;;;;;;6.97;5.30;;;;;;;10.74;65.12;95227.22;4962882;28;20211;-69
2023/05/05 03:10:15;;;;;;;6.00;5.40;;;;;;;10.72;65.36;95232.63;5053121;28;20196;-70
2023/05/05 03:13:00;;;;;;;5.60;5.10;;;;;;;10.84;65.00;95227.97;5042315;28;20229;-70
2023/05/05 03:15:50;;;;;;;5.83;5.33;;;;;;;10.88;65.03;95225.88;5042869;28;20231;-70
2023/05/05 03:18:17;;;;;;;5.50;5.00;;;;;;;10.87;65.20;95225.06;5041298;28;20283;-70
2023/05/05 03:20:43;;;;;;;6.00;5.40;;;;;;;10.75;65.42;95223.63;5054111;28;20228;-70
2023/05/05 03:23:09;;;;;;;6.95;5.80;;;;;;;10.91;65.10;95234.31;5044970;28;20218;-72
2023/05/05 03:25:47;;;;;;;6.90;5.85;;;;;;;10.96;64.70;95229.44;5039719;28;20233;-69
2023/05/05 03:28:14;;;;;;;6.10;4.97;;;;;;;10.99;64.87;95228.31;5051543;28;20232;-71
2023/05/05 03:30:40;;;;;;;5.33;4.93;;;;;;;11.01;64.96;95228.97;5037486;28;20277;-71
2023/05/05 03:33:07;;;;;;;6.47;5.37;;;;;;;10.98;64.95;95234.53;5033623;28;20336;-71
2023/05/05 03:35:33;;;;;;;6.10;5.47;;;;;;;10.87;65.20;95226.88;5036300;28;20312;-70
2023/05/05 03:37:58;;;;;;;5.67;5.07;;;;;;;10.95;64.99;95226.94;5038860;28;20364;-71
2023/05/05 03:40:24;;;;;;;5.63;5.23;;;;;;;10.90;64.99;95221.31;5028657;28;20221;-71
2023/05/05 03:42:50;;;;;;;6.03;5.33;;;;;;;10.92;64.94;95230.69;5026759;28;20258;-69
2023/05/05 03:45:15;;;;;;;7.10;5.95;;;;;;;10.93;64.77;95223.63;5034570;28;20213;-71
2023/05/05 03:47:41;;;;;;;5.70;5.20;;;;;;;10.96;64.96;95225.97;5035183;28;20228;-69
2023/05/05 03:50:07;;;;;;;6.77;5.83;;;;;;;10.95;65.08;95219.06;5029262;28;20225;-70
2023/05/05 03:52:32;;;;;;;5.80;5.30;;;;;;;11.07;64.62;95230.22;5031708;28;20229;-71
2023/05/05 03:54:58;;;;;;;5.73;5.23;;;;;;;10.99;65.01;95225.69;5029207;28;20206;-71
2023/05/05 03:57:25;;;;;;;7.23;5.37;;;;;;;11.09;64.70;95233.50;5036795;28;20229;-71
2023/05/05 03:59:51;;;;;;;8.48;5.63;;;;;;;11.15;64.50;95241.63;5035052;28;20218;-68
2023/05/05 04:02:17;;;;;;;5.90;5.30;;;;;;;11.10;64.40;95232.53;5026723;28;20287;-71
2023/05/05 04:04:42;;;;;;;5.90;5.30;;;;;;;11.03;64.58;95233.09;5032334;28;20217;-70
2023/05/05 04:07:08;;;;;;;6.63;5.93;;;;;;;11.06;64.57;95231.16;5036505;28;20227;-71
2023/05/05 04:09:33;;;;;;;5.73;4.90;;;;;;;11.11;64.65;95229.72;5028360;28;20237;-71
2023/05/05 04:11:59;;;;;;;6.43;5.30;;;;;;;11.09;64.41;95233.50;5034132;28;20262;-71
2023/05/05 04:14:25;;;;;;;5.53;5.03;;;;;;;11.20;64.17;95236.75;5031621;28;20233;-70
2023/05/05 04:16:50;;;;;;;6.37;5.77;;;;;;;11.24;64.54;95239.91;5044583;28;20311;-71
2023/05/05 04:19:16;;;;;;;6.60;5.80;;;;;;;11.35;64.47;95241.47;5034491;28;20185;-70
2023/05/05 04:21:41;;;;;;;7.73;5.77;;;;;;;11.41;64.08;95246.13;5035160;28;20193;-69
2023/05/05 04:24:07;;;;;;;6.77;6.07;;;;;;;11.36;64.19;95251.88;5033468;28;20224;-70
2023/05/05 04:26:32;;;;;;;7.20;6.30;;;;;;;11.34;64.24;95248.56;5031569;28;20230;-71
2023/05/05 04:28:58;;;;;;;7.90;6.50;;;;;;;11.37;64.16;95247.44;5031381;28;20230;-70
2023/05/05 04:31:23;;;;;;;6.57;5.87;;;;;;;11.44;64.08;95262.47;5046722;28;20303;-70
2023/05/05 04:33:49;;;;;;;7.45;6.75;;;;;;;11.40;64.11;95255.84;5032298;28;20220;-71
2023/05/05 04:36:14;;;;;;;10.33;6.87;;;;;;;11.41;64.06;95251.41;5032247;28;20237;-72
2023/05/05 04:38:40;;;;;;;7.73;6.83;;;;;;;11.48;63.39;95258.53;5029352;28;20325;-72
2023/05/05 04:41:05;;;;;;;7.03;6.32;;;;;;;11.55;63.08;95268.50;5024025;28;20218;-70
2023/05/05 04:43:31;;;;;;;11.40;7.93;;;;;;;11.53;62.89;95259.91;5030281;28;20266;-71
2023/05/05 04:45:56;;;;;;;9.27;7.03;;;;;;;11.62;62.68;95259.81;5023554;28;20260;-71
2023/05/05 04:48:22;;;;;;;9.30;7.32;;;;;;;11.59;62.75;95264.56;5036037;28;20248;-72
2023/05/05 04:50:47;;;;;;;9.75;7.03;;;;;;;11.67;62.42;95262.00;5034702;28;20245;-72
2023/05/05 04:53:12;;;;;;;12.97;8.40;;;;;;;11.64;62.77;95268.38;5024012;28;20240;-71
2023/05/05 04:55:38;;;;;;;15.30;7.88;;;;;;;11.72;62.48;95266.81;5028332;28;20237;-71
2023/05/05 04:58:04;;;;;;;10.95;7.15;;;;;;;11.69;62.28;95273.22;5035508;28;20247;-70
2023/05/05 05:00:29;;;;;;;8.17;7.10;;;;;;;11.64;62.20;95265.75;5031721;28;20233;-71
2023/05/05 05:02:55;;;;;;;11.63;7.00;;;;;;;11.66;61.71;95265.63;5022702;28;20238;-69
2023/05/05 05:05:21;;;;;;;8.70;7.57;;;;;;;11.58;62.17;95278.72;5005426;28;20277;-69
2023/05/05 05:07:47;;;;;;;7.93;7.10;;;;;;;11.51;62.93;95275.03;5015138;28;20222;-70
2023/05/05 05:10:12;;;;;;;7.95;7.15;;;;;;;11.61;62.60;95279.25;5015119;28;20194;-70
2023/05/05 05:12:38;;;;;;;8.43;7.60;;;;;;;11.48;62.65;95273.53;5013011;28;20221;-70
2023/05/05 05:15:04;;;;;;;9.15;7.32;;;;;;;11.54;62.75;95278.19;5002328;28;20949;-70
2023/05/05 05:17:29;;;;;;;9.43;7.15;;;;;;;11.60;62.25;95282.00;4998250;28;20247;-70
2023/05/05 05:19:58;;;;;;;9.32;7.70;;;;;;;11.65;62.33;95285.03;5014100;28;20235;-69
2023/05/05 05:22:23;;;;;;;13.30;9.17;;;;;;;11.66;62.64;95281.44;5024785;28;20183;-70
2023/05/05 05:24:49;;;;;;;10.15;8.85;;;;;;;11.84;61.29;95284.88;5013715;28;20198;-69
2023/05/05 05:27:14;;;;;;;12.82;11.15;;;;;;;11.80;61.58;95280.88;5011705;28;20222;-70
2023/05/05 05:29:40;;;;;;;14.80;13.00;;;;;;;11.82;61.59;95281.56;5013333;28;20218;-69
2023/05/05 05:32:05;;;;;;;12.13;10.90;;;;;;;11.98;61.10;95280.88;5011997;28;20240;-69
2023/05/05 05:34:30;;;;;;;9.07;8.17;;;;;;;12.02;60.65;95281.38;5008150;28;20297;-69
2023/05/05 05:36:56;;;;;;;10.60;8.20;;;;;;;12.14;60.61;95283.63;5012335;28;20201;-68
2023/05/05 05:39:22;;;;;;;6.00;5.50;;;;;;;12.22;59.50;95282.84;5013978;28;20288;-68
2023/05/05 05:41:47;;;;;;;7.33;5.97;;;;;;;12.14;59.10;95285.44;5011806;28;20222;-68
2023/05/05 05:44:13;;;;;;;5.95;5.10;;;;;;;12.28;58.91;95282.22;5008071;28;20230;-70
2023/05/05 05:46:38;;;;;;;6.28;5.18;;;;;;;12.44;58.57;95270.94;5014793;28;20218;-69
2023/05/05 05:49:03;;;;;;;6.38;5.32;;;;;;;12.29;58.66;95275.94;5015330;28;20240;-70
2023/05/05 05:51:29;;;;;;;6.03;4.65;;;;;;;12.35;58.23;95277.16;5011824;28;20218;-69
2023/05/05 05:53:55;;;;;;;8.70;4.95;;;;;;;12.41;58.30;95278.34;5006284;28;20325;-70
2023/05/05 05:56:20;;;;;;;6.88;4.57;;;;;;;12.55;58.10;95275.13;5007476;28;20226;-69
2023/05/05 05:58:47;;;;;;;6.18;4.90;;;;;;;12.60;57.47;95279.94;5014720;28;20219;-69
2023/05/05 06:01:13;;;;;;;10.48;4.57;;;;;;;12.71;57.33;95288.38;5010163;28;20277;-70
2023/05/05 06:03:38;;;;;;;12.98;5.47;;;;;;;12.51;58.32;95292.22;5029451;28;20230;-70
2023/05/05 06:06:04;;;;;;;13.48;5.32;;;;;;;12.74;57.85;95287.25;5014390;28;20502;-69
2023/05/05 06:08:30;;;;;;;5.57;4.90;;;;;;;12.89;57.24;95285.66;5008531;28;20225;-69
2023/05/05 06:10:55;;;;;;;8.35;4.70;;;;;;;12.92;56.95;95280.06;5008616;28;20280;-69
2023/05/05 06:13:21;;;;;;;5.05;4.15;;;;;;;13.11;56.66;95283.41;5014609;28;20257;-69
2023/05/05 06:15:46;;;;;;;6.30;4.18;;;;;;;13.20;56.75;95285.09;5006180;28;20217;-69
2023/05/05 06:18:12;;;;;;;4.32;3.10;;;;;;;13.13;55.93;95284.91;5003086;28;20237;-69
2023/05/05 06:20:37;;;;;;;3.78;3.00;;;;;;;13.33;55.29;95289.94;5020054;28;20309;-69
2023/05/05 06:23:02;;;;;;;3.65;3.25;;;;;;;13.08;55.75;95284.56;5005713;28;20224;-68
2023/05/05 06:25:28;;;;;;;4.15;3.70;;;;;;;13.08;56.06;95291.66;5030965;28;20189;-68
2023/05/05 06:27:53;;;;;;;3.40;2.75;;;;;;;13.15;55.92;95290.88;5030874;28;20222;-69
2023/05/05 06:30:19;;;;;;;4.00;2.42;;;;;;;13.14;55.44;95294.47;5027745;28;20253;-68
2023/05/05 06:32:44;;;;;;;3.08;2.60;;;;;;;13.19;55.08;95289.53;5014833;28;20228;-69
2023/05/05 06:35:10;;;;;;;2.90;2.70;;;;;;;13.32;55.01;95297.03;5018968;28;20230;-69
2023/05/05 06:37:35;;;;;;;3.90;2.97;;;;;;;13.41;55.31;95289.94;5030689;28;20214;-69
2023/05/05 06:40:00;;;;;;;5.47;3.20;;;;;;;13.44;55.07;95300.19;5009225;28;20182;-69
2023/05/05 06:42:26;;;;;;;7.72;4.75;;;;;;;13.42;55.08;95302.19;5036020;28;20221;-69
2023/05/05 06:44:51;;;;;;;4.07;3.65;;;;;;;13.60;54.18;95300.22;5030737;28;20210;-68
2023/05/05 06:47:17;;;;;;;3.50;3.05;;;;;;;13.18;54.89;95293.19;5015111;28;20249;-68
2023/05/05 06:49:42;;;;;;;5.07;3.10;;;;;;;12.98;56.09;95291.78;5004883;28;20229;-68
2023/05/05 06:52:08;;;;;;;3.53;3.05;;;;;;;13.11;56.32;95289.53;5013701;28;20554;-69
2023/05/05 06:54:33;;;;;;;3.20;2.83;;;;;;;13.20;55.90;95291.22;5030260;28;20218;-69
2023/05/05 06:56:58;;;;;;;6.43;2.83;;;;;;;13.40;55.71;95293.59;5029238;28;20206;-68
2023/05/05 06:59:25;;;;;;;2.90;2.60;;;;;;;13.40;54.89;95281.22;5002247;28;20225;-70
2023/05/05 07:01:51;;;;;;;3.15;2.80;;;;;;;13.55;54.32;95297.25;5014453;28;20245;-71
2023/05/05 07:04:16;;;;;;;2.97;2.70;;;;;;;13.66;54.37;95285.53;5013671;28;20212;-72
2023/05/05 07:06:41;;;;;;;6.82;3.67;;;;;;;13.77;53.88;95285.22;5028147;28;20201;-71
2023/05/05 07:09:07;;;;;;;4.85;3.70;;;;;;;13.99;52.78;95302.22;5028910;28;20314;-72
2023/05/05 07:11:32;;;;;;;4.75;3.60;;;;;;;13.59;53.78;95271.31;5005120;28;20218;-72
2023/05/05 07:13:58;;;;;;;6.85;4.82;;;;;;;13.78;53.77;95281.56;5010795;28;20276;-73
2023/05/05 07:16:25;;;;;;;5.20;3.60;;;;;;;13.98;53.79;95290.00;5003641;28;20630;-72
2023/05/05 07:18:51;;;;;;;4.13;3.28;;;;;;;14.20;53.15;95290.31;5010172;28;20248;-73
2023/05/05 07:21:16;;;;;;;3.15;2.88;;;;;;;14.25;53.09;95286.19;5026151;28;20214;-74
2023/05/05 07:23:42;;;;;;;4.82;3.40;;;;;;;14.32;52.81;95288.97;5030272;28;20220;-72
2023/05/05 07:26:07;;;;;;;5.82;3.97;;;;;;;14.54;51.79;95276.88;5014783;28;20214;-73
2023/05/05 07:28:33;;;;;;;2.70;2.50;;;;;;;14.26;51.79;95282.53;5028517;28;20222;-73
2023/05/05 07:30:59;;;;;;;6.90;3.60;;;;;;;14.46;51.79;95279.50;5018250;28;20253;-72
2023/05/05 07:33:24;;;;;;;6.32;5.75;;;;;;;14.58;51.77;95282.66;5007353;28;20249;-74
2023/05/05 07:35:50;;;;;;;5.97;3.90;;;;;;;14.53;51.36;95275.22;5013052;28;20279;-72
2023/05/05 07:38:15;;;;;;;4.20;3.42;;;;;;;14.69;50.58;95282.28;5027530;28;20218;-71
2023/05/05 07:40:41;;;;;;;4.88;2.72;;;;;;;14.70;50.58;95292.72;5013993;28;20218;-69
2023/05/05 07:43:06;;;;;;;3.72;3.42;;;;;;;14.79;50.66;95296.16;5012519;28;20182;-69
2023/05/05 07:45:32;;;;;;;3.60;3.30;;;;;;;14.77;50.65;95288.38;5007454;28;20218;-72
2023/05/05 07:47:57;;;;;;;4.93;3.53;;;;;;;14.93;49.92;95278.72;5028322;28;20218;-69
2023/05/05 07:50:23;;;;;;;3.88;3.40;;;;;;;14.98;49.55;95276.41;5013127;28;20222;-73
2023/05/05 07:52:49;;;;;;;3.95;3.17;;;;;;;15.08;49.59;95279.66;5023304;28;20222;-71
2023/05/05 07:55:14;;;;;;;3.17;2.97;;;;;;;15.24;49.28;95283.22;5014504;28;20214;-72
2023/05/05 07:57:40;;;;;;;3.58;3.03;;;;;;;15.16;49.44;95281.44;5035627;28;20182;-71
2023/05/05 08:00:06;;;;;;;3.60;3.17;;;;;;;14.98;49.26;95287.81;5015168;28;20282;-72
2023/05/05 08:02:32;;;;;;;3.35;3.05;;;;;;;14.97;49.63;95288.00;5018105;28;20280;-73
2023/05/05 08:04:57;;;;;;;4.07;2.80;;;;;;;14.92;49.36;95288.50;5003425;28;20218;-72
2023/05/05 08:07:23;;;;;;;3.80;3.15;;;;;;;14.82;49.48;95277.28;5024954;28;20272;-69
2023/05/05 08:09:48;;;;;;;5.13;2.58;;;;;;;14.73;49.70;95287.09;5015539;28;20249;-70
2023/05/05 08:12:16;;;;;;;3.20;2.80;;;;;;;14.74;49.83;95286.06;5014359;28;20218;-69
2023/05/05 08:14:42;;;;;;;3.30;3.00;;;;;;;14.76;49.64;95284.09;5009938;28;20226;-72
2023/05/05 08:17:07;;;;;;;3.88;2.72;;;;;;;14.73;49.55;95286.25;5014396;28;20233;-70
2023/05/05 08:19:33;;;;;;;3.85;3.08;;;;;;;14.81;49.84;95275.66;5032059;28;20253;-71
2023/05/05 08:21:59;;;;;;;2.88;2.55;;;;;;;14.83;49.64;95270.97;5005356;28;20177;-72
2023/05/05 08:24:25;;;;;;;3.60;2.58;;;;;;;14.91;49.97;95267.47;5021651;28;20289;-70
2023/05/05 08:26:51;;;;;;;2.67;2.47;;;;;;;14.98;50.52;95257.84;5008371;28;20601;-70
2023/05/05 08:29:16;;;;;;;4.38;2.75;;;;;;;15.05;49.69;95256.19;5012005;28;20225;-70
2023/05/05 08:31:41;;;;;;;3.33;2.63;;;;;;;15.07;49.55;95255.97;5006470;28;20214;-70
2023/05/05 08:34:07;;;;;;;2.85;2.55;;;;;;;15.06;49.23;95254.34;5030836;28;20183;-72
2023/05/05 08:36:32;;;;;;;2.88;2.58;;;;;;;15.20;48.70;95258.91;5005395;28;20223;-70
2023/05/05 08:38:58;;;;;;;3.55;2.38;;;;;;;15.13;48.56;95261.44;5016407;28;20229;-72
2023/05/05 08:41:25;;;;;;;2.33;2.13;;;;;;;15.24;49.19;95246.97;5028504;28;20238;-74
2023/05/05 08:43:50;;;;;;;3.80;2.67;;;;;;;15.36;49.50;95248.19;5015819;28;20277;-71
2023/05/05 08:46:16;;;;;;;3.47;2.20;;;;;;;15.28;49.14;95250.91;5017271;28;20290;-70
2023/05/05 08:48:43;;;;;;;3.97;2.10;;;;;;;15.21;48.55;95250.78;5014491;28;20190;-72
2023/05/05 08:51:15;;;;;;;3.03;2.10;;;;;;;15.20;48.49;95245.66;5009764;28;20225;-71
2023/05/05 08:53:53;;;;;;;4.22;2.70;;;;;;;15.44;48.43;95242.84;5014649;28;20215;-71
2023/05/05 08:56:20;;;;;;;2.50;2.30;;;;;;;15.66;48.71;95248.31;5002422;28;20258;-72
2023/05/05 08:58:47;;;;;;;3.10;2.13;;;;;;;15.81;47.10;95251.88;5008737;28;20216;-73
2023/05/05 09:01:13;;;;;;;3.55;2.17;;;;;;;16.03;46.05;95257.34;5014196;28;20195;-71
2023/05/05 09:03:39;;;;;;;2.58;2.00;;;;;;;16.19;45.86;95251.06;5022856;28;20322;-72
2023/05/05 09:06:06;;;;;;;2.40;1.98;;;;;;;16.32;46.13;95246.78;5011417;28;20281;-72
2023/05/05 09:08:32;;;;;;;2.45;2.10;;;;;;;16.58;46.15;95244.69;5009755;28;20225;-71
2023/05/05 09:10:59;;;;;;;1.92;1.67;;;;;;;16.27;44.09;95241.19;5006226;28;20219;-71
2023/05/05 09:13:29;;;;;;;2.13;1.80;;;;;;;16.30;45.03;95238.19;5008698;28;20604;-71
2023/05/05 09:15:54;;;;;;;2.80;2.60;;;;;;;16.42;46.11;95237.72;5013443;28;20198;-69
2023/05/05 09:18:20;;;;;;;3.75;3.00;;;;;;;16.51;47.41;95232.13;5014735;28;20221;-69
2023/05/05 09:20:45;;;;;;;2.90;2.70;;;;;;;16.75;47.03;95240.84;5010304;28;20225;-69
2023/05/05 09:23:13;;;;;;;2.70;2.50;;;;;;;16.40;46.74;95234.44;5012216;28;20238;-67
2023/05/05 09:25:40;;;;;;;2.90;2.63;;;;;;;16.08;47.97;95242.53;5020297;28;20353;-71
2023/05/05 09:28:10;;;;;;;2.08;1.98;;;;;;;16.17;48.60;95243.28;5008022;28;20182;-69
2023/05/05 09:30:37;;;;;;;2.58;2.38;;;;;;;16.14;48.61;95235.66;5014221;28;20223;-67
2023/05/05 09:33:03;;;;;;;3.55;2.60;;;;;;;16.30;48.61;95238.19;5007953;28;20301;-69
2023/05/05 09:35:46;;;;;;;2.35;2.10;;;;;;;16.72;46.60;95242.03;5004516;28;20231;-67
2023/05/05 09:38:11;;;;;;;3.45;2.75;;;;;;;16.68;46.79;95232.78;5011263;28;20237;-66
2023/05/05 09:40:45;;;;;;;5.72;3.15;;;;;;;16.91;47.11;95238.00;5003780;28;20225;-66
2023/05/05 09:43:10;;;;;;;2.92;2.63;;;;;;;17.18;45.64;95227.69;5019481;28;20348;-69
2023/05/05 09:45:36;;;;;;;4.95;3.20;;;;;;;17.42;45.84;95232.66;5021056;28;20228;-68
2023/05/05 09:48:01;;;;;;;3.42;2.85;;;;;;;17.76;45.64;95233.81;5023940;28;20273;-68
2023/05/05 09:50:29;;;;;;;2.75;2.55;;;;;;;17.88;45.10;95235.97;5009836;28;20305;-65
2023/05/05 09:52:56;;;;;;;3.85;3.55;;;;;;;18.05;44.10;95229.38;5007438;28;20223;-67
2023/05/05 09:55:22;;;;;;;3.17;2.88;;;;;;;18.27;42.89;95232.81;5004600;28;20214;-66
2023/05/05 09:57:48;;;;;;;2.75;2.55;;;;;;;18.28;42.06;95221.13;5026114;28;20187;-66
2023/05/05 10:00:13;;;;;;;3.97;2.90;;;;;;;18.15;43.95;95223.69;5021453;28;20254;-67
2023/05/05 10:02:39;;;;;;;3.13;2.90;;;;;;;18.37;42.58;95222.66;5021628;28;20332;-66
2023/05/05 10:05:06;;;;;;;2.83;2.63;;;;;;;17.98;44.48;95226.66;5034440;28;20213;-70
2023/05/05 10:07:31;;;;;;;3.42;2.85;;;;;;;17.94;44.02;95220.09;5029333;28;20186;-69
2023/05/05 10:10:02;;;;;;;2.45;2.35;;;;;;;17.78;42.79;95221.16;5027641;28;20189;-67
2023/05/05 10:12:29;;;;;;;2.92;2.70;;;;;;;17.51;43.73;95222.75;5043159;28;20209;-65
2023/05/05 10:14:55;;;;;;;4.00;2.50;;;;;;;17.57;43.33;95213.19;5023361;28;20229;-66
2023/05/05 10:17:29;;;;;;;2.83;2.63;;;;;;;17.37;45.29;95212.97;5042090;28;20237;-67
2023/05/05 10:19:59;;;;;;;3.40;2.42;;;;;;;17.68;44.94;95214.50;5022881;28;20320;-68
2023/05/05 10:22:26;;;;;;;4.45;3.00;;;;;;;17.88;44.83;95212.84;5022199;28;20173;-68
2023/05/05 10:24:57;;;;;;;3.53;3.00;;;;;;;18.12;45.34;95211.59;5021593;28;20185;-68
2023/05/05 10:27:24;;;;;;;3.40;3.10;;;;;;;18.32;43.93;95205.63;5021822;28;20232;-69
2023/05/05 10:30:06;;;;;;;2.95;2.72;;;;;;;18.37;43.58;95203.19;5024007;28;20245;-68
2023/05/05 10:32:50;;;;;;;3.25;2.95;;;;;;;18.36;44.02;95218.31;5002814;28;20225;-69
2023/05/05 10:35:21;;;;;;;3.50;2.75;;;;;;;18.57;43.07;95203.31;5029334;28;20312;-68
2023/05/05 10:37:46;;;;;;;3.63;3.33;;;;;;;18.74;42.69;95191.31;5027458;28;20217;-68
2023/05/05 10:40:19;;;;;;;3.90;2.78;;;;;;;18.95;41.94;95204.56;5027099;28;20193;-68
2023/05/05 10:42:44;;;;;;;2.60;2.40;;;;;;;18.95;40.68;95204.56;5024352;28;20336;-69
2023/05/05 10:45:10;;;;;;;3.03;2.83;;;;;;;18.59;42.31;95210.06;5027308;28;20244;-68
2023/05/05 10:47:38;;;;;;;3.00;2.80;;;;;;;18.80;42.12;95203.03;5039161;28;20301;-68
2023/05/05 10:50:29;;;;;;;4.25;2.78;;;;;;;19.07;41.71;95203.97;5037162;28;20232;-69
2023/05/05 10:53:35;;;;;;;2.97;2.70;;;;;;;19.14;41.46;95215.50;5035671;28;20225;-68
2023/05/05 10:56:18;;;;;;;2.63;2.42;;;;;;;19.08;41.65;95213.59;5027173;28;20234;-68
2023/05/05 10:58:43;;;;;;;3.65;3.28;;;;;;;19.10;41.05;95209.72;5025775;28;20685;-68
2023/05/05 11:01:09;;;;;;;4.55;3.00;;;;;;;19.06;41.66;95199.66;5046224;28;20186;-68
2023/05/05 11:03:34;;;;;;;3.10;2.90;;;;;;;19.26;41.73;95200.53;5008549;28;20782;-68
2023/05/05 11:06:03;;;;;;;2.97;2.67;;;;;;;19.51;41.75;95207.97;5007905;28;20230;-68
2023/05/05 11:08:33;;;;;;;3.78;2.30;;;;;;;19.41;40.11;95203.06;5010094;28;20238;-67
2023/05/05 11:10:59;;;;;;;2.78;2.10;;;;;;;19.44;39.89;95194.63;5002829;28;20226;-67
2023/05/05 11:13:25;;;;;;;3.95;2.65;;;;;;;19.38;41.21;95206.13;5003534;28;20186;-67
2023/05/05 11:15:53;;;;;;;2.65;2.35;;;;;;;19.77;40.21;95197.38;5011943;28;20198;-68
2023/05/05 11:18:37;;;;;;;2.45;2.13;;;;;;;19.84;38.32;95194.72;5025829;28;20319;-67
2023/05/05 11:21:02;;;;;;;2.50;2.30;;;;;;;19.69;39.16;95194.91;5005956;28;20244;-67
2023/05/05 11:23:28;;;;;;;2.40;2.20;;;;;;;19.34;39.60;95189.69;5010099;28;20238;-67
2023/05/05 11:25:56;;;;;;;2.60;2.40;;;;;;;19.24;40.20;95196.44;5009776;28;20225;-67
2023/05/05 11:28:30;;;;;;;3.60;1.92;;;;;;;18.87;40.12;95182.56;5003394;28;20252;-67
2023/05/05 11:30:55;;;;;;;3.25;2.28;;;;;;;19.29;40.48;95180.66;5023659;28;20236;-69
2023/05/05 11:33:29;;;;;;;2.55;2.33;;;;;;;19.61;39.44;95179.06;5015655;28;20257;-68